sensor_id;sensor_type;location;lat;lon;timestamp;temperature;humidity
67603;DHT22;54417;47.454;18.918;2023-03-14T00:02:00;6.66;65.46
67603;DHT22;54417;47.454;18.918;2023-03-14T00:07:23;6.69;65.58
67603;DHT22;54417;47.454;18.918;2023-03-14T00:12:49;6.55;66.06
67603;DHT22;54417;47.454;18.918;2023-03-14T00:18:12;6.66;65.68
67603;DHT22;54417;47.454;18.918;2023-03-14T00:23:38;6.66;65.93
67603;DHT22;54417;47.454;18.918;2023-03-14T00:29:03;6.62;66.01
67603;DHT22;54417;47.454;18.918;2023-03-14T00:34:28;6.65;65.84
67603;DHT22;54417;47.454;18.918;2023-03-14T00:39:52;6.62;66.14
67603;DHT22;54417;47.454;18.918;2023-03-14T00:45:17;6.69;65.86
67603;DHT22;54417;47.454;18.918;2023-03-14T00:50:41;6.80;65.46
67603;DHT22;54417;47.454;18.918;2023-03-14T00:56:07;6.82;65.51
67603;DHT22;54417;47.454;18.918;2023-03-14T01:01:32;6.80;65.30
67603;DHT22;54417;47.454;18.918;2023-03-14T01:06:56;6.59;66.18
67603;DHT22;54417;47.454;18.918;2023-03-14T01:12:20;6.52;66.43
67603;DHT22;54417;47.454;18.918;2023-03-14T01:17:45;6.45;66.46
67603;DHT22;54417;47.454;18.918;2023-03-14T01:23:09;6.52;66.46
67603;DHT22;54417;47.454;18.918;2023-03-14T01:28:33;6.39;66.73
67603;DHT22;54417;47.454;18.918;2023-03-14T01:33:58;6.41;66.78
67603;DHT22;54417;47.454;18.918;2023-03-14T01:39:22;6.46;66.72
67603;DHT22;54417;47.454;18.918;2023-03-14T01:44:48;6.42;67.07
67603;DHT22;54417;47.454;18.918;2023-03-14T01:50:13;6.53;66.89
67603;DHT22;54417;47.454;18.918;2023-03-14T01:55:37;6.49;66.94
67603;DHT22;54417;47.454;18.918;2023-03-14T02:01:02;6.41;67.37
67603;DHT22;54417;47.454;18.918;2023-03-14T02:06:36;6.48;67.22
67603;DHT22;54417;47.454;18.918;2023-03-14T02:12:03;6.59;66.96
67603;DHT22;54417;47.454;18.918;2023-03-14T02:17:49;6.59;66.94
67603;DHT22;54417;47.454;18.918;2023-03-14T02:23:29;6.41;67.51
67603;DHT22;54417;47.454;18.918;2023-03-14T02:28:55;6.31;67.95
67603;DHT22;54417;47.454;18.918;2023-03-14T02:34:19;6.14;68.64
67603;DHT22;54417;47.454;18.918;2023-03-14T02:39:44;6.08;69.12
67603;DHT22;54417;47.454;18.918;2023-03-14T02:45:40;6.07;69.44
67603;DHT22;54417;47.454;18.918;2023-03-14T02:51:06;6.13;69.31
67603;DHT22;54417;47.454;18.918;2023-03-14T02:56:31;6.34;68.72
67603;DHT22;54417;47.454;18.918;2023-03-14T03:01:59;6.48;68.52
67603;DHT22;54417;47.454;18.918;2023-03-14T03:07:23;6.44;68.85
67603;DHT22;54417;47.454;18.918;2023-03-14T03:12:50;6.38;69.05
67603;DHT22;54417;47.454;18.918;2023-03-14T03:18:19;6.42;69.24
67603;DHT22;54417;47.454;18.918;2023-03-14T03:23:43;6.32;69.81
67603;DHT22;54417;47.454;18.918;2023-03-14T03:29:06;6.41;69.46
67603;DHT22;54417;47.454;18.918;2023-03-14T03:34:32;6.45;69.17
67603;DHT22;54417;47.454;18.918;2023-03-14T03:39:56;6.48;69.53
67603;DHT22;54417;47.454;18.918;2023-03-14T03:45:20;6.44;69.71
67603;DHT22;54417;47.454;18.918;2023-03-14T03:50:50;6.39;70.16
67603;DHT22;54417;47.454;18.918;2023-03-14T03:56:17;6.11;70.79
67603;DHT22;54417;47.454;18.918;2023-03-14T04:01:41;6.13;71.32
67603;DHT22;54417;47.454;18.918;2023-03-14T04:07:06;5.96;71.71
67603;DHT22;54417;47.454;18.918;2023-03-14T04:12:30;6.10;71.49
67603;DHT22;54417;47.454;18.918;2023-03-14T04:17:59;6.14;71.43
67603;DHT22;54417;47.454;18.918;2023-03-14T04:23:25;6.34;70.96
67603;DHT22;54417;47.454;18.918;2023-03-14T04:28:50;6.27;71.28
67603;DHT22;54417;47.454;18.918;2023-03-14T04:34:16;6.27;71.44
67603;DHT22;54417;47.454;18.918;2023-03-14T04:39:47;6.27;71.64
67603;DHT22;54417;47.454;18.918;2023-03-14T04:45:20;6.32;71.64
67603;DHT22;54417;47.454;18.918;2023-03-14T04:50:46;6.24;71.99
67603;DHT22;54417;47.454;18.918;2023-03-14T04:56:11;6.32;71.97
67603;DHT22;54417;47.454;18.918;2023-03-14T05:01:38;6.31;71.97
67603;DHT22;54417;47.454;18.918;2023-03-14T05:07:22;6.45;71.60
67603;DHT22;54417;47.454;18.918;2023-03-14T05:13:11;6.45;71.54
67603;DHT22;54417;47.454;18.918;2023-03-14T05:18:54;6.64;70.77
67603;DHT22;54417;47.454;18.918;2023-03-14T05:24:33;6.75;70.54
67603;DHT22;54417;47.454;18.918;2023-03-14T05:29:58;6.96;69.84
67603;DHT22;54417;47.454;18.918;2023-03-14T05:35:58;7.17;68.94
67603;DHT22;54417;47.454;18.918;2023-03-14T05:41:40;7.44;68.35
67603;DHT22;54417;47.454;18.918;2023-03-14T05:47:08;7.78;67.59
67603;DHT22;54417;47.454;18.918;2023-03-14T05:52:52;7.92;66.95
67603;DHT22;54417;47.454;18.918;2023-03-14T05:58:45;8.44;65.81
67603;DHT22;54417;47.454;18.918;2023-03-14T06:04:27;8.98;64.01
67603;DHT22;54417;47.454;18.918;2023-03-14T06:09:54;9.40;62.21
67603;DHT22;54417;47.454;18.918;2023-03-14T06:15:18;9.75;61.54
67603;DHT22;54417;47.454;18.918;2023-03-14T06:20:46;9.96;60.35
67603;DHT22;54417;47.454;18.918;2023-03-14T06:26:17;10.10;59.61
67603;DHT22;54417;47.454;18.918;2023-03-14T06:31:41;10.05;59.62
67603;DHT22;54417;47.454;18.918;2023-03-14T06:37:08;10.02;59.94
67603;DHT22;54417;47.454;18.918;2023-03-14T06:42:32;10.09;59.69
67603;DHT22;54417;47.454;18.918;2023-03-14T06:47:56;10.17;59.51
67603;DHT22;54417;47.454;18.918;2023-03-14T06:53:30;10.29;59.08
67603;DHT22;54417;47.454;18.918;2023-03-14T06:58:56;10.53;58.32
67603;DHT22;54417;47.454;18.918;2023-03-14T07:04:24;10.73;58.59
67603;DHT22;54417;47.454;18.918;2023-03-14T07:09:49;10.90;57.46
67603;DHT22;54417;47.454;18.918;2023-03-14T07:15:13;10.88;57.47
67603;DHT22;54417;47.454;18.918;2023-03-14T07:20:45;11.14;57.08
67603;DHT22;54417;47.454;18.918;2023-03-14T07:26:13;11.28;57.68
67603;DHT22;54417;47.454;18.918;2023-03-14T07:31:42;11.49;56.49
67603;DHT22;54417;47.454;18.918;2023-03-14T07:37:07;12.01;55.77
67603;DHT22;54417;47.454;18.918;2023-03-14T07:42:32;12.37;54.86
67603;DHT22;54417;47.454;18.918;2023-03-14T07:48:26;12.60;54.43
67603;DHT22;54417;47.454;18.918;2023-03-14T07:53:50;12.99;53.84
67603;DHT22;54417;47.454;18.918;2023-03-14T07:59:15;13.34;53.21
67603;DHT22;54417;47.454;18.918;2023-03-14T08:04:39;13.66;52.89
67603;DHT22;54417;47.454;18.918;2023-03-14T08:10:04;13.92;51.81
67603;DHT22;54417;47.454;18.918;2023-03-14T08:15:30;14.30;52.54
67603;DHT22;54417;47.454;18.918;2023-03-14T08:20:54;14.50;51.01
67603;DHT22;54417;47.454;18.918;2023-03-14T08:26:18;14.89;50.70
67603;DHT22;54417;47.454;18.918;2023-03-14T08:31:43;15.33;50.09
67603;DHT22;54417;47.454;18.918;2023-03-14T08:37:07;15.64;48.42
67603;DHT22;54417;47.454;18.918;2023-03-14T08:42:46;15.87;48.34
67603;DHT22;54417;47.454;18.918;2023-03-14T08:48:11;16.12;48.12
67603;DHT22;54417;47.454;18.918;2023-03-14T08:53:35;16.38;48.54
67603;DHT22;54417;47.454;18.918;2023-03-14T08:58:59;16.56;46.36
67603;DHT22;54417;47.454;18.918;2023-03-14T09:04:24;16.60;46.97
67603;DHT22;54417;47.454;18.918;2023-03-14T09:09:48;16.90;46.64
67603;DHT22;54417;47.454;18.918;2023-03-14T09:15:12;17.08;45.80
67603;DHT22;54417;47.454;18.918;2023-03-14T09:20:37;17.04;46.01
67603;DHT22;54417;47.454;18.918;2023-03-14T09:26:01;17.24;46.33
67603;DHT22;54417;47.454;18.918;2023-03-14T09:31:24;17.23;45.74
67603;DHT22;54417;47.454;18.918;2023-03-14T09:36:50;17.31;46.44
67603;DHT22;54417;47.454;18.918;2023-03-14T09:42:16;17.51;45.91
67603;DHT22;54417;47.454;18.918;2023-03-14T09:47:41;17.81;44.91
67603;DHT22;54417;47.454;18.918;2023-03-14T09:53:25;18.21;43.89
67603;DHT22;54417;47.454;18.918;2023-03-14T09:58:52;18.82;42.96
67603;DHT22;54417;47.454;18.918;2023-03-14T10:04:21;19.37;40.83
67603;DHT22;54417;47.454;18.918;2023-03-14T10:09:48;19.98;40.41
67603;DHT22;54417;47.454;18.918;2023-03-14T10:15:13;20.16;39.48
67603;DHT22;54417;47.454;18.918;2023-03-14T10:20:41;20.59;38.20
67603;DHT22;54417;47.454;18.918;2023-03-14T10:26:13;20.83;37.38
67603;DHT22;54417;47.454;18.918;2023-03-14T10:31:47;20.92;37.93
67603;DHT22;54417;47.454;18.918;2023-03-14T10:37:18;20.70;37.68
67603;DHT22;54417;47.454;18.918;2023-03-14T10:42:46;20.71;37.96
67603;DHT22;54417;47.454;18.918;2023-03-14T10:48:22;20.88;38.07
67603;DHT22;54417;47.454;18.918;2023-03-14T10:53:48;21.24;37.14
67603;DHT22;54417;47.454;18.918;2023-03-14T10:59:15;21.59;37.87
67603;DHT22;54417;47.454;18.918;2023-03-14T11:04:50;21.11;37.88
67603;DHT22;54417;47.454;18.918;2023-03-14T11:10:20;21.27;37.66
67603;DHT22;54417;47.454;18.918;2023-03-14T11:15:57;21.29;37.59
67603;DHT22;54417;47.454;18.918;2023-03-14T11:21:24;21.25;37.04
67603;DHT22;54417;47.454;18.918;2023-03-14T11:26:53;21.39;37.44
67603;DHT22;54417;47.454;18.918;2023-03-14T11:32:25;21.41;36.74
67603;DHT22;54417;47.454;18.918;2023-03-14T11:37:54;21.17;36.85
67603;DHT22;54417;47.454;18.918;2023-03-14T11:43:24;20.77;37.82
67603;DHT22;54417;47.454;18.918;2023-03-14T11:48:59;20.88;38.20
67603;DHT22;54417;47.454;18.918;2023-03-14T11:54:32;20.70;38.32
67603;DHT22;54417;47.454;18.918;2023-03-14T12:00:00;20.56;37.78
67603;DHT22;54417;47.454;18.918;2023-03-14T12:06:01;20.62;38.14
67603;DHT22;54417;47.454;18.918;2023-03-14T12:11:35;20.36;37.73
67603;DHT22;54417;47.454;18.918;2023-03-14T12:17:05;20.69;37.70
67603;DHT22;54417;47.454;18.918;2023-03-14T12:22:33;20.44;37.30
67603;DHT22;54417;47.454;18.918;2023-03-14T12:28:17;20.42;38.50
67603;DHT22;54417;47.454;18.918;2023-03-14T12:33:41;20.79;37.84
67603;DHT22;54417;47.454;18.918;2023-03-14T12:39:20;20.67;37.05
67603;DHT22;54417;47.454;18.918;2023-03-14T12:44:47;20.35;37.57
67603;DHT22;54417;47.454;18.918;2023-03-14T12:50:25;20.02;38.40
67603;DHT22;54417;47.454;18.918;2023-03-14T12:55:55;19.65;39.26
67603;DHT22;54417;47.454;18.918;2023-03-14T13:01:20;19.51;40.29
67603;DHT22;54417;47.454;18.918;2023-03-14T13:06:49;19.16;40.58
67603;DHT22;54417;47.454;18.918;2023-03-14T13:12:19;18.92;42.32
67603;DHT22;54417;47.454;18.918;2023-03-14T13:17:48;18.79;41.79
67603;DHT22;54417;47.454;18.918;2023-03-14T13:23:20;18.51;42.07
67603;DHT22;54417;47.454;18.918;2023-03-14T13:28:46;18.48;41.88
67603;DHT22;54417;47.454;18.918;2023-03-14T13:34:10;18.33;42.12
67603;DHT22;54417;47.454;18.918;2023-03-14T13:39:34;18.38;42.27
67603;DHT22;54417;47.454;18.918;2023-03-14T13:45:05;18.41;42.08
67603;DHT22;54417;47.454;18.918;2023-03-14T13:50:29;18.58;42.26
67603;DHT22;54417;47.454;18.918;2023-03-14T13:55:53;18.92;41.74
67603;DHT22;54417;47.454;18.918;2023-03-14T14:01:22;19.19;41.02
67603;DHT22;54417;47.454;18.918;2023-03-14T14:06:49;19.36;41.24
67603;DHT22;54417;47.454;18.918;2023-03-14T14:12:16;19.54;40.63
67603;DHT22;54417;47.454;18.918;2023-03-14T14:17:44;19.54;40.60
67603;DHT22;54417;47.454;18.918;2023-03-14T14:23:11;19.41;40.20
67603;DHT22;54417;47.454;18.918;2023-03-14T14:28:36;19.19;40.08
67603;DHT22;54417;47.454;18.918;2023-03-14T14:34:03;19.23;40.57
67603;DHT22;54417;47.454;18.918;2023-03-14T14:39:28;19.29;40.42
67603;DHT22;54417;47.454;18.918;2023-03-14T14:44:54;19.23;39.07
67603;DHT22;54417;47.454;18.918;2023-03-14T14:50:30;19.10;39.49
67603;DHT22;54417;47.454;18.918;2023-03-14T14:55:56;18.99;39.43
67603;DHT22;54417;47.454;18.918;2023-03-14T15:01:22;18.84;40.75
67603;DHT22;54417;47.454;18.918;2023-03-14T15:06:49;18.65;42.16
67603;DHT22;54417;47.454;18.918;2023-03-14T15:12:15;18.40;43.06
67603;DHT22;54417;47.454;18.918;2023-03-14T15:17:38;18.30;42.81
67603;DHT22;54417;47.454;18.918;2023-03-14T15:23:07;18.02;44.62
67603;DHT22;54417;47.454;18.918;2023-03-14T15:28:31;17.78;44.31
67603;DHT22;54417;47.454;18.918;2023-03-14T15:33:55;17.65;43.93
67603;DHT22;54417;47.454;18.918;2023-03-14T15:39:20;17.49;45.17
67603;DHT22;54417;47.454;18.918;2023-03-14T15:44:44;16.57;57.81
67603;DHT22;54417;47.454;18.918;2023-03-14T15:50:08;15.63;66.72
67603;DHT22;54417;47.454;18.918;2023-03-14T15:55:34;14.93;68.68
67603;DHT22;54417;47.454;18.918;2023-03-14T16:00:58;14.63;70.12
67603;DHT22;54417;47.454;18.918;2023-03-14T16:06:22;14.16;72.38
67603;DHT22;54417;47.454;18.918;2023-03-14T16:11:47;13.78;74.44
67603;DHT22;54417;47.454;18.918;2023-03-14T16:17:11;13.55;74.89
67603;DHT22;54417;47.454;18.918;2023-03-14T16:22:34;13.47;75.32
67603;DHT22;54417;47.454;18.918;2023-03-14T16:27:59;13.45;74.34
67603;DHT22;54417;47.454;18.918;2023-03-14T16:33:34;13.44;74.79
67603;DHT22;54417;47.454;18.918;2023-03-14T16:38:57;13.28;75.60
67603;DHT22;54417;47.454;18.918;2023-03-14T16:44:23;13.16;76.62
67603;DHT22;54417;47.454;18.918;2023-03-14T16:49:46;13.00;77.61
67603;DHT22;54417;47.454;18.918;2023-03-14T16:55:10;12.87;77.91
67603;DHT22;54417;47.454;18.918;2023-03-14T17:00:36;12.85;78.30
67603;DHT22;54417;47.454;18.918;2023-03-14T17:05:59;12.69;79.11
67603;DHT22;54417;47.454;18.918;2023-03-14T17:11:25;12.53;80.14
67603;DHT22;54417;47.454;18.918;2023-03-14T17:16:50;12.49;80.87
67603;DHT22;54417;47.454;18.918;2023-03-14T17:22:14;12.38;79.76
67603;DHT22;54417;47.454;18.918;2023-03-14T17:27:50;12.29;81.42
67603;DHT22;54417;47.454;18.918;2023-03-14T17:33:16;12.21;80.19
67603;DHT22;54417;47.454;18.918;2023-03-14T17:38:40;12.17;80.20
67603;DHT22;54417;47.454;18.918;2023-03-14T17:44:04;12.01;80.95
67603;DHT22;54417;47.454;18.918;2023-03-14T17:49:29;11.93;81.72
67603;DHT22;54417;47.454;18.918;2023-03-14T17:54:53;11.77;82.63
67603;DHT22;54417;47.454;18.918;2023-03-14T18:00:17;11.67;82.36
67603;DHT22;54417;47.454;18.918;2023-03-14T18:05:45;11.60;82.78
67603;DHT22;54417;47.454;18.918;2023-03-14T18:11:10;11.49;83.56
67603;DHT22;54417;47.454;18.918;2023-03-14T18:16:34;11.43;83.84
67603;DHT22;54417;47.454;18.918;2023-03-14T18:21:59;11.35;84.20
67603;DHT22;54417;47.454;18.918;2023-03-14T18:27:23;11.38;84.02
67603;DHT22;54417;47.454;18.918;2023-03-14T18:32:47;11.36;83.68
67603;DHT22;54417;47.454;18.918;2023-03-14T18:38:12;11.24;83.96
67603;DHT22;54417;47.454;18.918;2023-03-14T18:43:36;11.16;83.96
67603;DHT22;54417;47.454;18.918;2023-03-14T18:49:00;11.16;83.70
67603;DHT22;54417;47.454;18.918;2023-03-14T18:54:27;11.14;83.36
67603;DHT22;54417;47.454;18.918;2023-03-14T18:59:51;11.16;83.77
67603;DHT22;54417;47.454;18.918;2023-03-14T19:05:18;11.22;84.02
67603;DHT22;54417;47.454;18.918;2023-03-14T19:10:44;11.12;84.41
67603;DHT22;54417;47.454;18.918;2023-03-14T19:16:10;11.02;84.76
67603;DHT22;54417;47.454;18.918;2023-03-14T19:21:34;10.98;84.35
67603;DHT22;54417;47.454;18.918;2023-03-14T19:27:00;11.02;84.35
67603;DHT22;54417;47.454;18.918;2023-03-14T19:32:23;11.04;84.34
67603;DHT22;54417;47.454;18.918;2023-03-14T19:37:47;11.01;84.17
67603;DHT22;54417;47.454;18.918;2023-03-14T19:43:13;11.01;85.05
67603;DHT22;54417;47.454;18.918;2023-03-14T19:48:38;10.98;84.89
67603;DHT22;54417;47.454;18.918;2023-03-14T19:54:02;11.05;85.10
67603;DHT22;54417;47.454;18.918;2023-03-14T19:59:27;11.11;84.91
67603;DHT22;54417;47.454;18.918;2023-03-14T20:04:51;10.87;86.31
67603;DHT22;54417;47.454;18.918;2023-03-14T20:10:17;10.71;86.68
67603;DHT22;54417;47.454;18.918;2023-03-14T20:15:43;10.73;86.57
67603;DHT22;54417;47.454;18.918;2023-03-14T20:21:08;10.73;86.54
67603;DHT22;54417;47.454;18.918;2023-03-14T20:26:34;10.73;86.52
67603;DHT22;54417;47.454;18.918;2023-03-14T20:32:00;10.73;86.32
67603;DHT22;54417;47.454;18.918;2023-03-14T20:37:23;10.78;86.14
67603;DHT22;54417;47.454;18.918;2023-03-14T20:42:48;10.88;86.28
67603;DHT22;54417;47.454;18.918;2023-03-14T20:48:13;10.90;86.39
67603;DHT22;54417;47.454;18.918;2023-03-14T20:53:37;10.83;86.81
67603;DHT22;54417;47.454;18.918;2023-03-14T20:59:01;10.77;87.01
67603;DHT22;54417;47.454;18.918;2023-03-14T21:04:27;10.71;87.24
67603;DHT22;54417;47.454;18.918;2023-03-14T21:09:52;10.60;87.61
67603;DHT22;54417;47.454;18.918;2023-03-14T21:15:15;10.54;87.26
67603;DHT22;54417;47.454;18.918;2023-03-14T21:20:41;10.52;87.35
67603;DHT22;54417;47.454;18.918;2023-03-14T21:26:05;10.49;87.54
67603;DHT22;54417;47.454;18.918;2023-03-14T21:31:29;10.49;87.68
67603;DHT22;54417;47.454;18.918;2023-03-14T21:36:55;10.49;87.95
67603;DHT22;54417;47.454;18.918;2023-03-14T21:42:19;10.39;88.31
67603;DHT22;54417;47.454;18.918;2023-03-14T21:47:42;10.45;88.45
67603;DHT22;54417;47.454;18.918;2023-03-14T21:53:10;10.36;88.58
67603;DHT22;54417;47.454;18.918;2023-03-14T21:58:34;10.45;88.38
67603;DHT22;54417;47.454;18.918;2023-03-14T22:03:58;10.37;88.43
67603;DHT22;54417;47.454;18.918;2023-03-14T22:09:23;10.28;88.77
67603;DHT22;54417;47.454;18.918;2023-03-14T22:14:47;10.26;88.90
67603;DHT22;54417;47.454;18.918;2023-03-14T22:20:11;10.13;89.45
67603;DHT22;54417;47.454;18.918;2023-03-14T22:25:39;10.03;89.65
67603;DHT22;54417;47.454;18.918;2023-03-14T22:31:03;9.98;89.65
67603;DHT22;54417;47.454;18.918;2023-03-14T22:36:27;9.92;89.17
67603;DHT22;54417;47.454;18.918;2023-03-14T22:41:53;9.91;87.91
67603;DHT22;54417;47.454;18.918;2023-03-14T22:47:17;9.89;86.59
67603;DHT22;54417;47.454;18.918;2023-03-14T22:52:41;9.85;86.27
67603;DHT22;54417;47.454;18.918;2023-03-14T22:58:06;9.81;85.38
67603;DHT22;54417;47.454;18.918;2023-03-14T23:03:30;9.77;85.59
67603;DHT22;54417;47.454;18.918;2023-03-14T23:08:54;9.70;85.60
67603;DHT22;54417;47.454;18.918;2023-03-14T23:14:19;9.71;80.37
67603;DHT22;54417;47.454;18.918;2023-03-14T23:19:44;9.70;79.68
67603;DHT22;54417;47.454;18.918;2023-03-14T23:25:09;9.64;78.37
67603;DHT22;54417;47.454;18.918;2023-03-14T23:30:37;9.61;77.33
67603;DHT22;54417;47.454;18.918;2023-03-14T23:36:04;9.58;76.84
67603;DHT22;54417;47.454;18.918;2023-03-14T23:41:28;9.52;77.02
67603;DHT22;54417;47.454;18.918;2023-03-14T23:46:53;9.46;76.98
67603;DHT22;54417;47.454;18.918;2023-03-14T23:52:17;9.37;76.96
67603;DHT22;54417;47.454;18.918;2023-03-14T23:57:40;9.31;77.65
